^^
Saratoga-Weather Station Historical Data
Daily Summary for October 22, 2020 Units:  Both    English   Metric
Daily Weekly Monthly Yearly Custom
  High: Low: Average:
Temperature: 69.1 °F /  20.6 °C 55 °F /  12.8 °C 62.2 °F /  16.8 °C
Dew Point: 59.5 °F /  15.3 °C 53.2 °F /  11.8 °C 56.5 °F /  13.6 °C
Humidity: 96% 66% 82%
Wind Speed: 8.1mph /  13km/h - 1.2mph /  1.9km/h
Wind Gust: 13mph /  20.9km/h - -
Wind- - SW
Pressure: 29.9 in /  1013.5 hPa 29.8 in /  1010.2 hPa -
Precipitation: 0.04 in /  1.0 mm    
Historical Graphs
 
 
Tabular Data for October 22, 2020
Time Temperature Dew Point Pressure Wind Wind Speed Wind Gust Humidity Rainfall Rate (Hourly) solar
00:01 63.3 °F /  17.4 °C 56.7 °F /  13.7 °C 29.8in /  1010.2hPa NE 0.9mph /  1.4km/h 3mph /  4.8km/h 79% 0in /  0.0mm 0 W/m2
00:06 63.1 °F /  17.3 °C 56.5 °F /  13.6 °C 29.8in /  1010.2hPa North 4mph /  6.4km/h 9mph /  14.5km/h 79% 0in /  0.0mm 0 W/m2
00:11 63.1 °F /  17.3 °C 56.5 °F /  13.6 °C 29.8in /  1010.5hPa NW 2mph /  3.2km/h 5mph /  8km/h 79% 0in /  0.0mm 0 W/m2
00:16 63.3 °F /  17.4 °C 56.3 °F /  13.5 °C 29.8in /  1010.5hPa NW 2mph /  3.2km/h 6mph /  9.7km/h 78% 0in /  0.0mm 0 W/m2
00:21 63.1 °F /  17.3 °C 56.1 °F /  13.4 °C 29.8in /  1010.5hPa North 2.9mph /  4.7km/h 3mph /  4.8km/h 78% 0in /  0.0mm 0 W/m2
00:26 63.1 °F /  17.3 °C 56.1 °F /  13.4 °C 29.8in /  1010.5hPa NNW 2.9mph /  4.7km/h 4mph /  6.4km/h 78% 0in /  0.0mm 0 W/m2
00:31 63.1 °F /  17.3 °C 56.1 °F /  13.4 °C 29.8in /  1010.5hPa WNW 0.9mph /  1.4km/h 6mph /  9.7km/h 78% 0in /  0.0mm 0 W/m2
00:36 63 °F /  17.2 °C 55.9 °F /  13.3 °C 29.8in /  1010.5hPa WNW 2mph /  3.2km/h 6mph /  9.7km/h 78% 0in /  0.0mm 0 W/m2
00:41 63 °F /  17.2 °C 55.9 °F /  13.3 °C 29.8in /  1010.5hPa WNW 0.9mph /  1.4km/h 7mph /  11.3km/h 78% 0in /  0.0mm 0 W/m2
00:46 63.1 °F /  17.3 °C 56.1 °F /  13.4 °C 29.8in /  1010.5hPa Calm   4mph /  6.4km/h 78% 0in /  0.0mm 0 W/m2
00:51 63.1 °F /  17.3 °C 56.1 °F /  13.4 °C 29.8in /  1010.5hPa Calm   2mph /  3.2km/h 78% 0in /  0.0mm 0 W/m2
00:56 63.1 °F /  17.3 °C 55.8 °F /  13.2 °C 29.8in /  1010.5hPa WNW 2.9mph /  4.7km/h 6mph /  9.7km/h 77% 0in /  0.0mm 0 W/m2
01:01 63.1 °F /  17.3 °C 55.8 °F /  13.2 °C 29.9in /  1010.8hPa West 2mph /  3.2km/h 4mph /  6.4km/h 77% 0in /  0.0mm 0 W/m2
01:06 63.1 °F /  17.3 °C 55.8 °F /  13.2 °C 29.8in /  1010.5hPa WNW 0.9mph /  1.4km/h 6mph /  9.7km/h 77% 0in /  0.0mm 0 W/m2
01:11 63 °F /  17.2 °C 55.9 °F /  13.3 °C 29.8in /  1010.5hPa NNW 0.9mph /  1.4km/h 4mph /  6.4km/h 78% 0in /  0.0mm 0 W/m2
01:16 63 °F /  17.2 °C 55.9 °F /  13.3 °C 29.8in /  1010.2hPa NE 2.9mph /  4.7km/h 3mph /  4.8km/h 78% 0in /  0.0mm 0 W/m2
01:21 63 °F /  17.2 °C 55.9 °F /  13.3 °C 29.9in /  1010.8hPa NNW 2.9mph /  4.7km/h 3mph /  4.8km/h 78% 0in /  0.0mm 0 W/m2
01:26 63 °F /  17.2 °C 55.9 °F /  13.3 °C 29.9in /  1010.8hPa West 2.9mph /  4.7km/h 4mph /  6.4km/h 78% 0in /  0.0mm 0 W/m2
01:31 62.8 °F /  17.1 °C 55.8 °F /  13.2 °C 29.9in /  1010.8hPa Calm   5mph /  8km/h 78% 0in /  0.0mm 0 W/m2
01:36 62.8 °F /  17.1 °C 56.1 °F /  13.4 °C 29.9in /  1010.8hPa WSW 2.9mph /  4.7km/h 9mph /  14.5km/h 79% 0in /  0.0mm 0 W/m2
01:41 62.8 °F /  17.1 °C 56.1 °F /  13.4 °C 29.9in /  1010.8hPa WNW 4mph /  6.4km/h 4mph /  6.4km/h 79% 0in /  0.0mm 0 W/m2
01:46 62.6 °F /  17 °C 55.9 °F /  13.3 °C 29.9in /  1010.8hPa Calm   9mph /  14.5km/h 79% 0in /  0.0mm 0 W/m2
01:51 62.4 °F /  16.9 °C 56.1 °F /  13.4 °C 29.9in /  1010.8hPa NW 2mph /  3.2km/h 3mph /  4.8km/h 80% 0in /  0.0mm 0 W/m2
01:56 62.2 °F /  16.8 °C 56.3 °F /  13.5 °C 29.9in /  1010.8hPa West 2mph /  3.2km/h 4mph /  6.4km/h 81% 0in /  0.0mm 0 W/m2
02:01 62.1 °F /  16.7 °C 56.1 °F /  13.4 °C 29.9in /  1010.8hPa NNW 0.9mph /  1.4km/h 3mph /  4.8km/h 81% 0in /  0.0mm 0 W/m2
02:06 61.9 °F /  16.6 °C 56.3 °F /  13.5 °C 29.9in /  1010.8hPa Calm   4mph /  6.4km/h 82% 0in /  0.0mm 0 W/m2
02:11 61.7 °F /  16.5 °C 56.1 °F /  13.4 °C 29.9in /  1010.8hPa NNW 0.9mph /  1.4km/h 2mph /  3.2km/h 82% 0in /  0.0mm 0 W/m2
02:16 61.5 °F /  16.4 °C 55.9 °F /  13.3 °C 29.9in /  1010.8hPa Calm   1mph /  1.6km/h 82% 0in /  0.0mm 0 W/m2
02:21 61.3 °F /  16.3 °C 56.1 °F /  13.4 °C 29.9in /  1010.8hPa Calm   1mph /  1.6km/h 83% 0in /  0.0mm 0 W/m2
02:26 61.2 °F /  16.2 °C 55.9 °F /  13.3 °C 29.9in /  1011.2hPa Calm   2mph /  3.2km/h 83% 0in /  0.0mm 0 W/m2
02:32 61.2 °F /  16.2 °C 55.9 °F /  13.3 °C 29.9in /  1011.2hPa NW 0.9mph /  1.4km/h 1mph /  1.6km/h 83% 0in /  0.0mm 0 W/m2
02:37 61.2 °F /  16.2 °C 55.9 °F /  13.3 °C 29.9in /  1011.2hPa North 2mph /  3.2km/h 3mph /  4.8km/h 83% 0in /  0.0mm 0 W/m2
02:42 61.2 °F /  16.2 °C 55.9 °F /  13.3 °C 29.9in /  1011.2hPa Calm   1mph /  1.6km/h 83% 0in /  0.0mm 0 W/m2
02:47 61.2 °F /  16.2 °C 55.9 °F /  13.3 °C 29.9in /  1011.5hPa Calm   2mph /  3.2km/h 83% 0in /  0.0mm 0 W/m2
02:52 61.2 °F /  16.2 °C 55.9 °F /  13.3 °C 29.9in /  1011.5hPa West 0.9mph /  1.4km/h 4mph /  6.4km/h 83% 0in /  0.0mm 0 W/m2
02:57 61.3 °F /  16.3 °C 55.8 °F /  13.2 °C 29.9in /  1011.5hPa Calm   3mph /  4.8km/h 82% 0in /  0.0mm 0 W/m2
03:02 61.2 °F /  16.2 °C 55.6 °F /  13.1 °C 29.9in /  1011.5hPa North 2mph /  3.2km/h 4mph /  6.4km/h 82% 0in /  0.0mm 0 W/m2
03:07 61 °F /  16.1 °C 55.4 °F /  13 °C 29.9in /  1011.5hPa NNE 2mph /  3.2km/h 4mph /  6.4km/h 82% 0in /  0.0mm 0 W/m2
03:12 61 °F /  16.1 °C 55.8 °F /  13.2 °C 29.9in /  1011.2hPa ESE 0.9mph /  1.4km/h 2mph /  3.2km/h 83% 0in /  0.0mm 0 W/m2
03:17 60.6 °F /  15.9 °C 55.4 °F /  13 °C 29.9in /  1011.2hPa Calm   1mph /  1.6km/h 83% 0in /  0.0mm 0 W/m2
03:22 60.4 °F /  15.8 °C 55.2 °F /  12.9 °C 29.9in /  1011.2hPa Calm   1mph /  1.6km/h 83% 0in /  0.0mm 0 W/m2
03:27 60.1 °F /  15.6 °C 54.9 °F /  12.7 °C 29.9in /  1011.2hPa Calm     83% 0in /  0.0mm 0 W/m2
03:32 59.7 °F /  15.4 °C 54.9 °F /  12.7 °C 29.9in /  1011.2hPa NNW 2.9mph /  4.7km/h 3mph /  4.8km/h 84% 0in /  0.0mm 0 W/m2
03:37 59.7 °F /  15.4 °C 55.2 °F /  12.9 °C 29.9in /  1011.5hPa NW 2mph /  3.2km/h 2mph /  3.2km/h 85% 0in /  0.0mm 0 W/m2
03:42 59.5 °F /  15.3 °C 55 °F /  12.8 °C 29.9in /  1011.2hPa Calm     85% 0in /  0.0mm 0 W/m2
03:47 59.5 °F /  15.3 °C 55 °F /  12.8 °C 29.9in /  1011.2hPa NW 0.9mph /  1.4km/h 4mph /  6.4km/h 85% 0in /  0.0mm 0 W/m2
03:52 59.9 °F /  15.5 °C 55.4 °F /  13 °C 29.9in /  1011.5hPa Calm   1mph /  1.6km/h 85% 0in /  0.0mm 0 W/m2
03:57 59.7 °F /  15.4 °C 54.9 °F /  12.7 °C 29.9in /  1011.5hPa NNW 2mph /  3.2km/h 4mph /  6.4km/h 84% 0in /  0.0mm 0 W/m2
04:02 59.5 °F /  15.3 °C 55 °F /  12.8 °C 29.9in /  1011.5hPa Calm   1mph /  1.6km/h 85% 0in /  0.0mm 0 W/m2
04:07 59.5 °F /  15.3 °C 55 °F /  12.8 °C 29.9in /  1011.5hPa NW 0.9mph /  1.4km/h 1mph /  1.6km/h 85% 0in /  0.0mm 0 W/m2
04:12 59.9 °F /  15.5 °C 55 °F /  12.8 °C 29.9in /  1011.5hPa NNW 0.9mph /  1.4km/h 3mph /  4.8km/h 84% 0in /  0.0mm 0 W/m2
04:17 60.3 °F /  15.7 °C 55 °F /  12.8 °C 29.9in /  1011.5hPa Calm   2mph /  3.2km/h 83% 0in /  0.0mm 0 W/m2
04:22 60.4 °F /  15.8 °C 54.9 °F /  12.7 °C 29.9in /  1011.5hPa NW 0.9mph /  1.4km/h 2mph /  3.2km/h 82% 0in /  0.0mm 0 W/m2
04:27 60.6 °F /  15.9 °C 55 °F /  12.8 °C 29.9in /  1011.2hPa South 0.9mph /  1.4km/h 2mph /  3.2km/h 82% 0in /  0.0mm 0 W/m2
04:32 60.6 °F /  15.9 °C 55 °F /  12.8 °C 29.9in /  1011.2hPa WSW 0.9mph /  1.4km/h 3mph /  4.8km/h 82% 0in /  0.0mm 0 W/m2
04:37 60.6 °F /  15.9 °C 55 °F /  12.8 °C 29.9in /  1011.2hPa Calm   1mph /  1.6km/h 82% 0in /  0.0mm 0 W/m2
04:42 60.4 °F /  15.8 °C 54.9 °F /  12.7 °C 29.9in /  1011.2hPa WNW 0.9mph /  1.4km/h 3mph /  4.8km/h 82% 0in /  0.0mm 0 W/m2
04:47 60.4 °F /  15.8 °C 54.9 °F /  12.7 °C 29.9in /  1011.2hPa Calm     82% 0in /  0.0mm 0 W/m2
04:52 60.3 °F /  15.7 °C 55 °F /  12.8 °C 29.9in /  1011.5hPa Calm     83% 0in /  0.0mm 0 W/m2
04:57 59.9 °F /  15.5 °C 54.7 °F /  12.6 °C 29.9in /  1011.5hPa SSE 0.9mph /  1.4km/h 6mph /  9.7km/h 83% 0in /  0.0mm 0 W/m2
05:02 60.1 °F /  15.6 °C 54.5 °F /  12.5 °C 29.9in /  1011.5hPa North 0.9mph /  1.4km/h 2mph /  3.2km/h 82% 0in /  0.0mm 0 W/m2
05:07 60.4 °F /  15.8 °C 54.5 °F /  12.5 °C 29.9in /  1011.5hPa WSW 0.9mph /  1.4km/h 3mph /  4.8km/h 81% 0in /  0.0mm 0 W/m2
05:12 60.4 °F /  15.8 °C 54.3 °F /  12.4 °C 29.9in /  1011.5hPa NW 0.9mph /  1.4km/h 1mph /  1.6km/h 80% 0in /  0.0mm 0 W/m2
05:17 60.6 °F /  15.9 °C 54.7 °F /  12.6 °C 29.9in /  1011.5hPa NE 0.9mph /  1.4km/h 3mph /  4.8km/h 81% 0in /  0.0mm 0 W/m2
05:22 60.4 °F /  15.8 °C 54.3 °F /  12.4 °C 29.9in /  1011.5hPa Calm   4mph /  6.4km/h 80% 0in /  0.0mm 0 W/m2
05:27 60.6 °F /  15.9 °C 54.5 °F /  12.5 °C 29.9in /  1011.5hPa Calm   1mph /  1.6km/h 80% 0in /  0.0mm 0 W/m2
05:32 61 °F /  16.1 °C 54.5 °F /  12.5 °C 29.9in /  1011.5hPa Calm   4mph /  6.4km/h 79% 0in /  0.0mm 0 W/m2
05:38 60.8 °F /  16 °C 54.3 °F /  12.4 °C 29.9in /  1011.2hPa Calm   3mph /  4.8km/h 79% 0in /  0.0mm 0 W/m2
05:43 60.8 °F /  16 °C 54.3 °F /  12.4 °C 29.9in /  1011.5hPa NNW 0.9mph /  1.4km/h 3mph /  4.8km/h 79% 0in /  0.0mm 0 W/m2
05:48 60.6 °F /  15.9 °C 54.5 °F /  12.5 °C 29.9in /  1011.5hPa Calm   1mph /  1.6km/h 80% 0in /  0.0mm 0 W/m2
05:53 60.4 °F /  15.8 °C 54 °F /  12.2 °C 29.9in /  1011.5hPa Calm   3mph /  4.8km/h 79% 0in /  0.0mm 0 W/m2
05:58 60.4 °F /  15.8 °C 54 °F /  12.2 °C 29.9in /  1011.9hPa NE 2mph /  3.2km/h 2mph /  3.2km/h 79% 0in /  0.0mm 0 W/m2
06:03 60.4 °F /  15.8 °C 54 °F /  12.2 °C 29.9in /  1011.9hPa Calm   1mph /  1.6km/h 79% 0in /  0.0mm 0 W/m2
06:08 60.4 °F /  15.8 °C 54 °F /  12.2 °C 29.9in /  1011.9hPa West 0.9mph /  1.4km/h 2mph /  3.2km/h 79% 0in /  0.0mm 0 W/m2
06:13 60.4 °F /  15.8 °C 54 °F /  12.2 °C 29.9in /  1011.9hPa NW 0.9mph /  1.4km/h 2mph /  3.2km/h 79% 0in /  0.0mm 0 W/m2
06:18 60.4 °F /  15.8 °C 54 °F /  12.2 °C 29.9in /  1012.2hPa WNW 0.9mph /  1.4km/h 4mph /  6.4km/h 79% 0in /  0.0mm 0 W/m2
06:23 60.8 °F /  16 °C 54 °F /  12.2 °C 29.9in /  1012.2hPa WNW 2mph /  3.2km/h 4mph /  6.4km/h 78% 0in /  0.0mm 0 W/m2
06:28 61.3 °F /  16.3 °C 53.8 °F /  12.1 °C 29.9in /  1012.2hPa NW 4.9mph /  7.9km/h 7mph /  11.3km/h 76% 0in /  0.0mm 0 W/m2
06:33 61.9 °F /  16.6 °C 54.3 °F /  12.4 °C 29.9in /  1012.2hPa NNE 0.9mph /  1.4km/h 3mph /  4.8km/h 76% 0in /  0.0mm 0 W/m2
06:38 61.9 °F /  16.6 °C 53.8 °F /  12.1 °C 29.9in /  1012.2hPa NNE 0.9mph /  1.4km/h 2mph /  3.2km/h 75% 0in /  0.0mm 0 W/m2
06:43 61.7 °F /  16.5 °C 54.1 °F /  12.3 °C 29.9in /  1012.2hPa NNW 8.1mph /  13km/h 8mph /  12.9km/h 76% 0in /  0.0mm 0 W/m2
06:48 61.3 °F /  16.3 °C 54.5 °F /  12.5 °C 29.9in /  1012.2hPa WNW 8.1mph /  13km/h 11mph /  17.7km/h 78% 0in /  0.0mm 0 W/m2
06:53 61 °F /  16.1 °C 54.5 °F /  12.5 °C 29.9in /  1011.9hPa NW 4mph /  6.4km/h 5mph /  8km/h 79% 0in /  0.0mm 0 W/m2
06:58 60.4 °F /  15.8 °C 54.3 °F /  12.4 °C 29.9in /  1011.9hPa WSW 4mph /  6.4km/h 4mph /  6.4km/h 80% 0in /  0.0mm 0 W/m2
07:03 60.3 °F /  15.7 °C 54.3 °F /  12.4 °C 29.9in /  1011.9hPa NW 2mph /  3.2km/h 6mph /  9.7km/h 81% 0in /  0.0mm 0 W/m2
07:08 60.1 °F /  15.6 °C 54.5 °F /  12.5 °C 29.9in /  1011.9hPa Calm   4mph /  6.4km/h 82% 0in /  0.0mm 0 W/m2
07:13 59.7 °F /  15.4 °C 54.1 °F /  12.3 °C 29.9in /  1012.2hPa North 2mph /  3.2km/h 3mph /  4.8km/h 82% 0in /  0.0mm 0 W/m2
07:18 59.7 °F /  15.4 °C 54.5 °F /  12.5 °C 29.9in /  1011.9hPa NNE 0.9mph /  1.4km/h 5mph /  8km/h 83% 0in /  0.0mm 0 W/m2
07:23 59.4 °F /  15.2 °C 54.5 °F /  12.5 °C 29.9in /  1011.9hPa NW 0.9mph /  1.4km/h 4mph /  6.4km/h 84% 0.01in /  0.2mm 0 W/m2
07:28 59.2 °F /  15.1 °C 54.7 °F /  12.6 °C 29.9in /  1011.5hPa NW 2.9mph /  4.7km/h 4mph /  6.4km/h 85% 0.02in /  0.5mm 0 W/m2
07:33 58.8 °F /  14.9 °C 54.7 °F /  12.6 °C 29.9in /  1011.9hPa NW 0.9mph /  1.4km/h 2mph /  3.2km/h 86% 0.03in /  0.8mm 0 W/m2
07:38 58.6 °F /  14.8 °C 54.9 °F /  12.7 °C 29.9in /  1011.9hPa NW 2mph /  3.2km/h 2mph /  3.2km/h 87% 0.03in /  0.8mm 0 W/m2
07:43 58.5 °F /  14.7 °C 54.9 °F /  12.7 °C 29.9in /  1011.9hPa WNW 0.9mph /  1.4km/h 2mph /  3.2km/h 88% 0.03in /  0.8mm 0 W/m2
07:48 58.3 °F /  14.6 °C 55 °F /  12.8 °C 29.9in /  1011.9hPa SW 2mph /  3.2km/h 2mph /  3.2km/h 89% 0.03in /  0.8mm 0 W/m2
07:53 57.9 °F /  14.4 °C 55 °F /  12.8 °C 29.9in /  1011.9hPa Calm   2mph /  3.2km/h 90% 0.03in /  0.8mm 0 W/m2
07:58 57.7 °F /  14.3 °C 54.9 °F /  12.7 °C 29.9in /  1011.9hPa Calm   1mph /  1.6km/h 90% 0.03in /  0.8mm 0 W/m2
08:03 57.6 °F /  14.2 °C 55 °F /  12.8 °C 29.9in /  1011.9hPa Calm     91% 0.03in /  0.8mm 0 W/m2
08:08 57.4 °F /  14.1 °C 54.9 °F /  12.7 °C 29.9in /  1011.9hPa Calm     91% 0.04in /  1.0mm 0 W/m2
08:13 57 °F /  13.9 °C 54.7 °F /  12.6 °C 29.9in /  1012.2hPa Calm     92% 0.04in /  1.0mm 0 W/m2
08:18 56.8 °F /  13.8 °C 54.5 °F /  12.5 °C 29.9in /  1012.2hPa Calm   1mph /  1.6km/h 92% 0.04in /  1.0mm 5 W/m2
08:23 56.7 °F /  13.7 °C 54.3 °F /  12.4 °C 29.9in /  1012.2hPa Calm   1mph /  1.6km/h 92% 0.03in /  0.8mm 9 W/m2
08:28 56.3 °F /  13.5 °C 54 °F /  12.2 °C 29.9in /  1012.5hPa Calm     92% 0.02in /  0.5mm 12 W/m2
08:33 56.1 °F /  13.4 °C 53.8 °F /  12.1 °C 29.9in /  1012.5hPa Calm     92% 0.01in /  0.2mm 14 W/m2
08:38 55.9 °F /  13.3 °C 54 °F /  12.2 °C 29.9in /  1012.5hPa Calm     93% 0.01in /  0.2mm 19 W/m2
08:43 55.6 °F /  13.1 °C 53.6 °F /  12 °C 29.9in /  1012.5hPa Calm     93% 0.01in /  0.2mm 23 W/m2
08:48 55.4 °F /  13 °C 53.4 °F /  11.9 °C 29.9in /  1012.5hPa Calm     93% 0.01in /  0.2mm 26 W/m2
08:53 55.2 °F /  12.9 °C 53.2 °F /  11.8 °C 29.9in /  1012.9hPa Calm     93% 0.01in /  0.2mm 25 W/m2
08:58 55.2 °F /  12.9 °C 53.2 °F /  11.8 °C 29.9in /  1012.9hPa Calm     93% 0.01in /  0.2mm 28 W/m2
09:03 55 °F /  12.8 °C 53.4 °F /  11.9 °C 29.9in /  1012.9hPa Calm     94% 0.01in /  0.2mm 42 W/m2
09:08 55 °F /  12.8 °C 53.4 °F /  11.9 °C 29.9in /  1012.9hPa Calm     94% 0in /  0.0mm 42 W/m2
09:13 55 °F /  12.8 °C 53.4 °F /  11.9 °C 29.9in /  1013.2hPa Calm     94% 0in /  0.0mm 56 W/m2
09:18 55 °F /  12.8 °C 53.4 °F /  11.9 °C 29.9in /  1013.2hPa Calm     94% 0in /  0.0mm 47 W/m2
09:23 55 °F /  12.8 °C 53.4 °F /  11.9 °C 29.9in /  1013.2hPa Calm     94% 0in /  0.0mm 40 W/m2
09:28 55 °F /  12.8 °C 53.6 °F /  12 °C 29.9in /  1013.5hPa Calm     95% 0in /  0.0mm 37 W/m2
09:33 55.2 °F /  12.9 °C 53.8 °F /  12.1 °C 29.9in /  1013.5hPa Calm     95% 0in /  0.0mm 69 W/m2
09:38 55.2 °F /  12.9 °C 53.8 °F /  12.1 °C 29.9in /  1013.5hPa Calm     95% 0in /  0.0mm 47 W/m2
09:43 55.4 °F /  13 °C 54 °F /  12.2 °C 29.9in /  1013.5hPa Calm     95% 0in /  0.0mm 70 W/m2
09:48 55.6 °F /  13.1 °C 54.1 °F /  12.3 °C 29.9in /  1013.5hPa Calm     95% 0in /  0.0mm 120 W/m2
09:53 55.9 °F /  13.3 °C 54.5 °F /  12.5 °C 29.9in /  1013.5hPa Calm     95% 0in /  0.0mm 155 W/m2
09:58 56.1 °F /  13.4 °C 54.7 °F /  12.6 °C 29.9in /  1013.5hPa Calm     95% 0in /  0.0mm 243 W/m2
10:03 56.7 °F /  13.7 °C 55.6 °F /  13.1 °C 29.9in /  1013.5hPa Calm   1mph /  1.6km/h 96% 0in /  0.0mm 197 W/m2
10:08 56.8 °F /  13.8 °C 55.8 °F /  13.2 °C 29.9in /  1013.5hPa Calm     96% 0in /  0.0mm 95 W/m2
10:13 57.2 °F /  14 °C 56.1 °F /  13.4 °C 29.9in /  1013.5hPa Calm     96% 0in /  0.0mm 70 W/m2
10:19 57.6 °F /  14.2 °C 56.1 °F /  13.4 °C 29.9in /  1013.5hPa Calm     95% 0in /  0.0mm 179 W/m2
10:24 57.7 °F /  14.3 °C 56.3 °F /  13.5 °C 29.9in /  1013.5hPa Calm   2mph /  3.2km/h 95% 0in /  0.0mm 56 W/m2
10:29 57.9 °F /  14.4 °C 56.5 °F /  13.6 °C 29.9in /  1013.5hPa Calm   1mph /  1.6km/h 95% 0in /  0.0mm 104 W/m2
10:34 58.3 °F /  14.6 °C 56.5 °F /  13.6 °C 29.9in /  1013.5hPa ENE 0.9mph /  1.4km/h 2mph /  3.2km/h 94% 0in /  0.0mm 91 W/m2
10:39 58.5 °F /  14.7 °C 56.7 °F /  13.7 °C 29.9in /  1013.5hPa East 0.9mph /  1.4km/h 2mph /  3.2km/h 94% 0in /  0.0mm 151 W/m2
10:44 58.8 °F /  14.9 °C 57 °F /  13.9 °C 29.9in /  1013.5hPa Calm     94% 0in /  0.0mm 262 W/m2
10:49 59.4 °F /  15.2 °C 57.4 °F /  14.1 °C 29.9in /  1013.5hPa Calm   1mph /  1.6km/h 93% 0in /  0.0mm 141 W/m2
10:54 59.5 °F /  15.3 °C 57.2 °F /  14 °C 29.9in /  1013.5hPa ESE 2mph /  3.2km/h 3mph /  4.8km/h 92% 0in /  0.0mm 91 W/m2
10:59 59.7 °F /  15.4 °C 57 °F /  13.9 °C 29.9in /  1013.5hPa Calm     91% 0in /  0.0mm 65 W/m2
11:04 59.7 °F /  15.4 °C 57 °F /  13.9 °C 29.9in /  1013.5hPa Calm   2mph /  3.2km/h 91% 0in /  0.0mm 83 W/m2
11:09 59.9 °F /  15.5 °C 57 °F /  13.9 °C 29.9in /  1013.5hPa SE 0.9mph /  1.4km/h 1mph /  1.6km/h 90% 0in /  0.0mm 56 W/m2
11:14 59.9 °F /  15.5 °C 57.2 °F /  14 °C 29.9in /  1013.5hPa NE 2mph /  3.2km/h 2mph /  3.2km/h 91% 0in /  0.0mm 54 W/m2
11:19 59.9 °F /  15.5 °C 57 °F /  13.9 °C 29.9in /  1013.5hPa Calm   2mph /  3.2km/h 90% 0in /  0.0mm 54 W/m2
11:24 60.3 °F /  15.7 °C 57.4 °F /  14.1 °C 29.9in /  1013.5hPa ESE 2mph /  3.2km/h 3mph /  4.8km/h 90% 0in /  0.0mm 58 W/m2
11:29 60.4 °F /  15.8 °C 56.8 °F /  13.8 °C 29.9in /  1013.5hPa NE 4mph /  6.4km/h 5mph /  8km/h 88% 0in /  0.0mm 60 W/m2
11:34 61.2 °F /  16.2 °C 57 °F /  13.9 °C 29.9in /  1013.2hPa SSE 2mph /  3.2km/h 4mph /  6.4km/h 86% 0in /  0.0mm 135 W/m2
11:39 61.7 °F /  16.5 °C 57.2 °F /  14 °C 29.9in /  1013.2hPa NW 2mph /  3.2km/h 2mph /  3.2km/h 85% 0in /  0.0mm 62 W/m2
11:44 62.2 °F /  16.8 °C 57 °F /  13.9 °C 29.9in /  1013.2hPa NNE 0.9mph /  1.4km/h 5mph /  8km/h 83% 0in /  0.0mm 67 W/m2
11:49 63 °F /  17.2 °C 57.4 °F /  14.1 °C 29.9in /  1013.2hPa NE 2mph /  3.2km/h 4mph /  6.4km/h 82% 0in /  0.0mm 56 W/m2
11:54 63.1 °F /  17.3 °C 56.8 °F /  13.8 °C 29.9in /  1013.2hPa WNW 2mph /  3.2km/h 5mph /  8km/h 80% 0in /  0.0mm 53 W/m2
11:59 63.5 °F /  17.5 °C 56.8 °F /  13.8 °C 29.9in /  1013.2hPa ENE 2mph /  3.2km/h 4mph /  6.4km/h 79% 0in /  0.0mm 54 W/m2
12:04 64 °F /  17.8 °C 57 °F /  13.9 °C 29.9in /  1013.2hPa WNW 4mph /  6.4km/h 8mph /  12.9km/h 78% 0in /  0.0mm 54 W/m2
12:09 64.6 °F /  18.1 °C 56.8 °F /  13.8 °C 29.9in /  1013.2hPa West 2.9mph /  4.7km/h 8mph /  12.9km/h 76% 0in /  0.0mm 58 W/m2
12:14 64.8 °F /  18.2 °C 56.7 °F /  13.7 °C 29.9in /  1013.2hPa West 2mph /  3.2km/h 7mph /  11.3km/h 75% 0in /  0.0mm 65 W/m2
12:19 64.9 °F /  18.3 °C 57.2 °F /  14 °C 29.9in /  1012.9hPa WNW 0.9mph /  1.4km/h 3mph /  4.8km/h 76% 0in /  0.0mm 54 W/m2
12:24 65.1 °F /  18.4 °C 57 °F /  13.9 °C 29.9in /  1012.9hPa NW 0.9mph /  1.4km/h 1mph /  1.6km/h 75% 0in /  0.0mm 70 W/m2
12:29 65.3 °F /  18.5 °C 57.2 °F /  14 °C 29.9in /  1013.2hPa NNW 2mph /  3.2km/h 4mph /  6.4km/h 75% 0in /  0.0mm 70 W/m2
12:34 65.7 °F /  18.7 °C 57.2 °F /  14 °C 29.9in /  1013.2hPa NE 0.9mph /  1.4km/h 4mph /  6.4km/h 74% 0in /  0.0mm 105 W/m2
12:39 65.8 °F /  18.8 °C 57 °F /  13.9 °C 29.9in /  1012.9hPa East 0.9mph /  1.4km/h 5mph /  8km/h 73% 0in /  0.0mm 107 W/m2
12:44 65.8 °F /  18.8 °C 57 °F /  13.9 °C 29.9in /  1012.9hPa Calm   4mph /  6.4km/h 73% 0in /  0.0mm 165 W/m2
12:49 66 °F /  18.9 °C 57.2 °F /  14 °C 29.9in /  1012.9hPa WNW 2mph /  3.2km/h 4mph /  6.4km/h 73% 0in /  0.0mm 207 W/m2
12:54 66 °F /  18.9 °C 57.2 °F /  14 °C 29.9in /  1012.9hPa NW 0.9mph /  1.4km/h 4mph /  6.4km/h 73% 0in /  0.0mm 494 W/m2
12:59 66.4 °F /  19.1 °C 57 °F /  13.9 °C 29.9in /  1012.9hPa WSW 4mph /  6.4km/h 9mph /  14.5km/h 72% 0in /  0.0mm 144 W/m2
13:04 66.6 °F /  19.2 °C 57.2 °F /  14 °C 29.9in /  1012.9hPa East 0.9mph /  1.4km/h 3mph /  4.8km/h 72% 0in /  0.0mm 165 W/m2
13:09 66.7 °F /  19.3 °C 57.4 °F /  14.1 °C 29.9in /  1012.9hPa NW 2mph /  3.2km/h 13mph /  20.9km/h 72% 0in /  0.0mm 190 W/m2
13:14 66.9 °F /  19.4 °C 57.6 °F /  14.2 °C 29.9in /  1012.5hPa North 2mph /  3.2km/h 5mph /  8km/h 72% 0in /  0.0mm 128 W/m2
13:19 67.3 °F /  19.6 °C 57.6 °F /  14.2 °C 29.9in /  1012.5hPa WNW 4mph /  6.4km/h 12mph /  19.3km/h 71% 0in /  0.0mm 90 W/m2
13:24 67.5 °F /  19.7 °C 57.4 °F /  14.1 °C 29.9in /  1012.5hPa WNW 2.9mph /  4.7km/h 4mph /  6.4km/h 70% 0in /  0.0mm 83 W/m2
13:30 67.5 °F /  19.7 °C 57 °F /  13.9 °C 29.9in /  1012.5hPa WNW 2.9mph /  4.7km/h 10mph /  16.1km/h 69% 0in /  0.0mm 137 W/m2
13:35 67.6 °F /  19.8 °C 57.6 °F /  14.2 °C 29.9in /  1012.5hPa WNW 0.9mph /  1.4km/h 4mph /  6.4km/h 70% 0in /  0.0mm 207 W/m2
13:40 67.8 °F /  19.9 °C 57.7 °F /  14.3 °C 29.9in /  1012.5hPa SW 0.9mph /  1.4km/h 9mph /  14.5km/h 70% 0in /  0.0mm 156 W/m2
13:45 68.2 °F /  20.1 °C 57.6 °F /  14.2 °C 29.9in /  1012.5hPa WNW 2.9mph /  4.7km/h 6mph /  9.7km/h 69% 0in /  0.0mm 200 W/m2
13:50 68.4 °F /  20.2 °C 58.3 °F /  14.6 °C 29.9in /  1012.5hPa NW 2mph /  3.2km/h 4mph /  6.4km/h 70% 0in /  0.0mm 193 W/m2
13:55 68.5 °F /  20.3 °C 58.3 °F /  14.6 °C 29.9in /  1012.2hPa WNW 2mph /  3.2km/h 3mph /  4.8km/h 70% 0in /  0.0mm 135 W/m2
14:00 68.5 °F /  20.3 °C 57.6 °F /  14.2 °C 29.9in /  1012.2hPa West 0.9mph /  1.4km/h 7mph /  11.3km/h 68% 0in /  0.0mm 137 W/m2
14:05 68.4 °F /  20.2 °C 57.7 °F /  14.3 °C 29.9in /  1012.2hPa WNW 0.9mph /  1.4km/h 3mph /  4.8km/h 69% 0in /  0.0mm 185 W/m2
14:10 68.5 °F /  20.3 °C 57.9 °F /  14.4 °C 29.9in /  1012.2hPa WNW 2.9mph /  4.7km/h 3mph /  4.8km/h 69% 0in /  0.0mm 176 W/m2
14:15 68.5 °F /  20.3 °C 57.9 °F /  14.4 °C 29.9in /  1012.2hPa West 2mph /  3.2km/h 4mph /  6.4km/h 69% 0in /  0.0mm 149 W/m2
14:20 68.7 °F /  20.4 °C 57.7 °F /  14.3 °C 29.9in /  1012.2hPa West 2.9mph /  4.7km/h 8mph /  12.9km/h 68% 0in /  0.0mm 158 W/m2
14:25 68.9 °F /  20.5 °C 57.9 °F /  14.4 °C 29.9in /  1012.2hPa WNW 0.9mph /  1.4km/h 4mph /  6.4km/h 68% 0in /  0.0mm 95 W/m2
14:30 69.1 °F /  20.6 °C 58.5 °F /  14.7 °C 29.9in /  1011.9hPa WNW 6.9mph /  11.1km/h 10mph /  16.1km/h 69% 0in /  0.0mm 90 W/m2
14:35 69.1 °F /  20.6 °C 58.5 °F /  14.7 °C 29.9in /  1011.9hPa WNW 2.9mph /  4.7km/h 4mph /  6.4km/h 69% 0in /  0.0mm 83 W/m2
14:40 69.1 °F /  20.6 °C 58.1 °F /  14.5 °C 29.9in /  1011.9hPa WNW 4.9mph /  7.9km/h 9mph /  14.5km/h 68% 0in /  0.0mm 102 W/m2
14:45 69.1 °F /  20.6 °C 57.7 °F /  14.3 °C 29.9in /  1011.9hPa NW 0.9mph /  1.4km/h 5mph /  8km/h 67% 0in /  0.0mm 102 W/m2
14:50 69.1 °F /  20.6 °C 57.7 °F /  14.3 °C 29.9in /  1011.9hPa NNW 0.9mph /  1.4km/h 9mph /  14.5km/h 67% 0in /  0.0mm 139 W/m2
14:55 69.1 °F /  20.6 °C 57.7 °F /  14.3 °C 29.9in /  1011.9hPa NNE 2.9mph /  4.7km/h 5mph /  8km/h 67% 0in /  0.0mm 183 W/m2
15:00 69.1 °F /  20.6 °C 57.7 °F /  14.3 °C 29.9in /  1011.9hPa NW 0.9mph /  1.4km/h 9mph /  14.5km/h 67% 0in /  0.0mm 148 W/m2
15:05 69.1 °F /  20.6 °C 57.7 °F /  14.3 °C 29.9in /  1012.2hPa West 6.9mph /  11.1km/h 7mph /  11.3km/h 67% 0in /  0.0mm 176 W/m2
15:10 69.1 °F /  20.6 °C 57.2 °F /  14 °C 29.9in /  1012.2hPa WNW 4mph /  6.4km/h 10mph /  16.1km/h 66% 0in /  0.0mm 137 W/m2
15:15 68.9 °F /  20.5 °C 57 °F /  13.9 °C 29.9in /  1012.2hPa WNW 4.9mph /  7.9km/h 6mph /  9.7km/h 66% 0in /  0.0mm 130 W/m2
15:20 68.7 °F /  20.4 °C 57.4 °F /  14.1 °C 29.9in /  1012.2hPa SSE 0.9mph /  1.4km/h 5mph /  8km/h 67% 0in /  0.0mm 130 W/m2
15:25 68.7 °F /  20.4 °C 57.4 °F /  14.1 °C 29.9in /  1011.9hPa WNW 0.9mph /  1.4km/h 2mph /  3.2km/h 67% 0in /  0.0mm 116 W/m2
15:30 68.7 °F /  20.4 °C 57.7 °F /  14.3 °C 29.9in /  1011.9hPa NNE 2mph /  3.2km/h 2mph /  3.2km/h 68% 0in /  0.0mm 86 W/m2
15:35 68.5 °F /  20.3 °C 57.2 °F /  14 °C 29.9in /  1012.2hPa South 0.9mph /  1.4km/h 2mph /  3.2km/h 67% 0in /  0.0mm 105 W/m2
15:40 68.5 °F /  20.3 °C 57.6 °F /  14.2 °C 29.9in /  1011.9hPa WNW 0.9mph /  1.4km/h 4mph /  6.4km/h 68% 0in /  0.0mm 77 W/m2
15:45 68.4 °F /  20.2 °C 57.4 °F /  14.1 °C 29.9in /  1011.9hPa Calm   4mph /  6.4km/h 68% 0in /  0.0mm 81 W/m2
15:50 68.4 °F /  20.2 °C 57.7 °F /  14.3 °C 29.9in /  1011.9hPa NW 0.9mph /  1.4km/h 2mph /  3.2km/h 69% 0in /  0.0mm 113 W/m2
15:55 68.2 °F /  20.1 °C 58.1 °F /  14.5 °C 29.9in /  1011.9hPa NNW 0.9mph /  1.4km/h 2mph /  3.2km/h 70% 0in /  0.0mm 98 W/m2
16:00 68 °F /  20 °C 57.4 °F /  14.1 °C 29.9in /  1011.9hPa Calm   2mph /  3.2km/h 69% 0in /  0.0mm 79 W/m2
16:05 68 °F /  20 °C 57.9 °F /  14.4 °C 29.9in /  1011.9hPa Calm   3mph /  4.8km/h 70% 0in /  0.0mm 63 W/m2
16:10 67.8 °F /  19.9 °C 57.7 °F /  14.3 °C 29.9in /  1011.9hPa NW 0.9mph /  1.4km/h 1mph /  1.6km/h 70% 0in /  0.0mm 58 W/m2
16:15 67.6 °F /  19.8 °C 58.6 °F /  14.8 °C 29.9in /  1011.9hPa Calm   1mph /  1.6km/h 73% 0in /  0.0mm 54 W/m2
16:20 67.3 °F /  19.6 °C 59 °F /  15 °C 29.9in /  1011.9hPa Calm   2mph /  3.2km/h 75% 0in /  0.0mm 47 W/m2
16:25 66.7 °F /  19.3 °C 59 °F /  15 °C 29.9in /  1012.2hPa SE 0.9mph /  1.4km/h 2mph /  3.2km/h 76% 0in /  0.0mm 32 W/m2
16:30 66.6 °F /  19.2 °C 59.5 °F /  15.3 °C 29.9in /  1012.2hPa Calm   1mph /  1.6km/h 78% 0in /  0.0mm 30 W/m2
16:35 66.2 °F /  19 °C 59.5 °F /  15.3 °C 29.9in /  1011.9hPa SW 0.9mph /  1.4km/h 1mph /  1.6km/h 79% 0in /  0.0mm 33 W/m2
16:40 65.8 °F /  18.8 °C 59.5 °F /  15.3 °C 29.9in /  1011.9hPa Calm     80% 0in /  0.0mm 67 W/m2
16:45 65.7 °F /  18.7 °C 59 °F /  15 °C 29.9in /  1011.9hPa Calm     79% 0in /  0.0mm 56 W/m2
16:50 65.5 °F /  18.6 °C 58.8 °F /  14.9 °C 29.9in /  1011.9hPa ESE 0.9mph /  1.4km/h 2mph /  3.2km/h 79% 0in /  0.0mm 56 W/m2
16:55 65.3 °F /  18.5 °C 58.3 °F /  14.6 °C 29.9in /  1011.9hPa Calm   1mph /  1.6km/h 78% 0in /  0.0mm 60 W/m2
17:00 65.3 °F /  18.5 °C 58.6 °F /  14.8 °C 29.9in /  1012.2hPa Calm     79% 0in /  0.0mm 56 W/m2
17:05 65.5 °F /  18.6 °C 58.5 °F /  14.7 °C 29.9in /  1012.2hPa SE 0.9mph /  1.4km/h 1mph /  1.6km/h 78% 0in /  0.0mm 65 W/m2
17:10 65.5 °F /  18.6 °C 58.5 °F /  14.7 °C 29.9in /  1012.2hPa NNE 2mph /  3.2km/h 3mph /  4.8km/h 78% 0in /  0.0mm 72 W/m2
17:15 65.7 °F /  18.7 °C 58.3 °F /  14.6 °C 29.9in /  1012.2hPa NE 2mph /  3.2km/h 2mph /  3.2km/h 77% 0in /  0.0mm 72 W/m2
17:20 65.8 °F /  18.8 °C 58.5 °F /  14.7 °C 29.9in /  1012.2hPa NE 2mph /  3.2km/h 4mph /  6.4km/h 77% 0in /  0.0mm 62 W/m2
17:25 65.8 °F /  18.8 °C 58.8 °F /  14.9 °C 29.9in /  1012.2hPa East 2mph /  3.2km/h 4mph /  6.4km/h 78% 0in /  0.0mm 35 W/m2
17:30 65.7 °F /  18.7 °C 58.3 °F /  14.6 °C 29.9in /  1012.2hPa NE 2mph /  3.2km/h 4mph /  6.4km/h 77% 0in /  0.0mm 49 W/m2
17:35 65.7 °F /  18.7 °C 57.9 °F /  14.4 °C 29.9in /  1012.2hPa ENE 0.9mph /  1.4km/h 3mph /  4.8km/h 76% 0in /  0.0mm 63 W/m2
17:40 65.7 °F /  18.7 °C 57.9 °F /  14.4 °C 29.9in /  1012.2hPa Calm   4mph /  6.4km/h 76% 0in /  0.0mm 56 W/m2
17:45 65.7 °F /  18.7 °C 57.9 °F /  14.4 °C 29.9in /  1012.2hPa Calm   3mph /  4.8km/h 76% 0in /  0.0mm 32 W/m2
17:50 65.8 °F /  18.8 °C 58.5 °F /  14.7 °C 29.9in /  1012.2hPa NNW 0.9mph /  1.4km/h 1mph /  1.6km/h 77% 0in /  0.0mm 30 W/m2
17:55 65.7 °F /  18.7 °C 57.9 °F /  14.4 °C 29.9in /  1012.2hPa Calm   1mph /  1.6km/h 76% 0in /  0.0mm 40 W/m2
18:00 65.5 °F /  18.6 °C 58.1 °F /  14.5 °C 29.9in /  1012.2hPa Calm   3mph /  4.8km/h 77% 0in /  0.0mm 40 W/m2
18:05 65.5 °F /  18.6 °C 58.1 °F /  14.5 °C 29.9in /  1012.5hPa North 0.9mph /  1.4km/h 2mph /  3.2km/h 77% 0in /  0.0mm 39 W/m2
18:10 65.3 °F /  18.5 °C 57.9 °F /  14.4 °C 29.9in /  1012.2hPa North 0.9mph /  1.4km/h 2mph /  3.2km/h 77% 0in /  0.0mm 32 W/m2
18:15 65.1 °F /  18.4 °C 58.1 °F /  14.5 °C 29.9in /  1012.2hPa North 0.9mph /  1.4km/h 3mph /  4.8km/h 78% 0in /  0.0mm 21 W/m2
18:20 64.9 °F /  18.3 °C 57.9 °F /  14.4 °C 29.9in /  1012.2hPa Calm   1mph /  1.6km/h 78% 0in /  0.0mm 12 W/m2
18:25 64.8 °F /  18.2 °C 58.1 °F /  14.5 °C 29.9in /  1012.5hPa NE 0.9mph /  1.4km/h 3mph /  4.8km/h 79% 0in /  0.0mm 5 W/m2
18:30 64.6 °F /  18.1 °C 57.9 °F /  14.4 °C 29.9in /  1012.5hPa NNE 0.9mph /  1.4km/h 1mph /  1.6km/h 79% 0in /  0.0mm 0 W/m2
18:35 63.9 °F /  17.7 °C 57.6 °F /  14.2 °C 29.9in /  1012.5hPa Calm   2mph /  3.2km/h 80% 0in /  0.0mm 0 W/m2
18:40 63.5 °F /  17.5 °C 57.6 °F /  14.2 °C 29.9in /  1012.5hPa NNW 0.9mph /  1.4km/h 3mph /  4.8km/h 81% 0in /  0.0mm 0 W/m2
18:45 63.3 °F /  17.4 °C 57.7 °F /  14.3 °C 29.9in /  1012.5hPa NW 2mph /  3.2km/h 3mph /  4.8km/h 82% 0in /  0.0mm 0 W/m2
18:50 63.1 °F /  17.3 °C 57.6 °F /  14.2 °C 29.9in /  1012.5hPa NNE 0.9mph /  1.4km/h 3mph /  4.8km/h 82% 0in /  0.0mm 0 W/m2
18:55 63.1 °F /  17.3 °C 57.6 °F /  14.2 °C 29.9in /  1012.5hPa NNW 2.9mph /  4.7km/h 4mph /  6.4km/h 82% 0in /  0.0mm 0 W/m2
19:00 63 °F /  17.2 °C 57.7 °F /  14.3 °C 29.9in /  1012.5hPa North 0.9mph /  1.4km/h 4mph /  6.4km/h 83% 0in /  0.0mm 0 W/m2
19:05 63 °F /  17.2 °C 57.7 °F /  14.3 °C 29.9in /  1012.9hPa NW 2mph /  3.2km/h 3mph /  4.8km/h 83% 0in /  0.0mm 0 W/m2
19:10 62.8 °F /  17.1 °C 57.6 °F /  14.2 °C 29.9in /  1012.9hPa East 2.9mph /  4.7km/h 6mph /  9.7km/h 83% 0in /  0.0mm 0 W/m2
19:15 62.8 °F /  17.1 °C 57.6 °F /  14.2 °C 29.9in /  1012.9hPa NW 0.9mph /  1.4km/h 4mph /  6.4km/h 83% 0in /  0.0mm 0 W/m2
19:20 62.8 °F /  17.1 °C 57.6 °F /  14.2 °C 29.9in /  1012.9hPa NNE 0.9mph /  1.4km/h 8mph /  12.9km/h 83% 0in /  0.0mm 0 W/m2
19:25 62.6 °F /  17 °C 57.4 °F /  14.1 °C 29.9in /  1012.9hPa NE 4mph /  6.4km/h 5mph /  8km/h 83% 0in /  0.0mm 0 W/m2
19:30 62.6 °F /  17 °C 57.4 °F /  14.1 °C 29.9in /  1012.9hPa North 0.9mph /  1.4km/h 8mph /  12.9km/h 83% 0in /  0.0mm 0 W/m2
19:35 62.6 °F /  17 °C 57.4 °F /  14.1 °C 29.9in /  1012.9hPa WNW 4mph /  6.4km/h 4mph /  6.4km/h 83% 0in /  0.0mm 0 W/m2
19:40 62.4 °F /  16.9 °C 57.2 °F /  14 °C 29.9in /  1012.9hPa Calm   3mph /  4.8km/h 83% 0in /  0.0mm 0 W/m2
19:45 62.4 °F /  16.9 °C 57.2 °F /  14 °C 29.9in /  1012.9hPa WNW 0.9mph /  1.4km/h 3mph /  4.8km/h 83% 0in /  0.0mm 0 W/m2
19:50 62.2 °F /  16.8 °C 57 °F /  13.9 °C 29.9in /  1012.9hPa North 0.9mph /  1.4km/h 2mph /  3.2km/h 83% 0in /  0.0mm 0 W/m2
19:55 62.2 °F /  16.8 °C 57 °F /  13.9 °C 29.9in /  1013.2hPa NW 2.9mph /  4.7km/h 4mph /  6.4km/h 83% 0in /  0.0mm 0 W/m2
20:00 62.2 °F /  16.8 °C 57 °F /  13.9 °C 29.9in /  1012.9hPa Calm   2mph /  3.2km/h 83% 0in /  0.0mm 0 W/m2
20:05 62.2 °F /  16.8 °C 57.4 °F /  14.1 °C 29.9in /  1012.9hPa WNW 2.9mph /  4.7km/h 5mph /  8km/h 84% 0in /  0.0mm 0 W/m2
20:10 62.2 °F /  16.8 °C 57.4 °F /  14.1 °C 29.9in /  1012.9hPa Calm   2mph /  3.2km/h 84% 0in /  0.0mm 0 W/m2
20:15 62.2 °F /  16.8 °C 57.4 °F /  14.1 °C 29.9in /  1013.2hPa North 0.9mph /  1.4km/h 3mph /  4.8km/h 84% 0in /  0.0mm 0 W/m2
20:20 62.2 °F /  16.8 °C 57.4 °F /  14.1 °C 29.9in /  1013.2hPa NE 0.9mph /  1.4km/h 3mph /  4.8km/h 84% 0in /  0.0mm 0 W/m2
20:25 62.2 °F /  16.8 °C 57.4 °F /  14.1 °C 29.9in /  1013.2hPa Calm   3mph /  4.8km/h 84% 0in /  0.0mm 0 W/m2
20:30 62.1 °F /  16.7 °C 57.2 °F /  14 °C 29.9in /  1013.2hPa NNW 0.9mph /  1.4km/h 2mph /  3.2km/h 84% 0in /  0.0mm 0 W/m2
20:35 62.1 °F /  16.7 °C 57.2 °F /  14 °C 29.9in /  1013.2hPa Calm   3mph /  4.8km/h 84% 0in /  0.0mm 0 W/m2
20:40 61.9 °F /  16.6 °C 57 °F /  13.9 °C 29.9in /  1012.9hPa NNW 0.9mph /  1.4km/h 3mph /  4.8km/h 84% 0in /  0.0mm 0 W/m2
20:45 61.9 °F /  16.6 °C 57.4 °F /  14.1 °C 29.9in /  1012.9hPa NNW 2.9mph /  4.7km/h 3mph /  4.8km/h 85% 0in /  0.0mm 0 W/m2
20:50 61.9 °F /  16.6 °C 57.4 °F /  14.1 °C 29.9in /  1012.9hPa WNW 2.9mph /  4.7km/h 4mph /  6.4km/h 85% 0in /  0.0mm 0 W/m2
20:55 61.9 °F /  16.6 °C 57.4 °F /  14.1 °C 29.9in /  1012.9hPa Calm   3mph /  4.8km/h 85% 0in /  0.0mm 0 W/m2
21:00 61.7 °F /  16.5 °C 57.2 °F /  14 °C 29.9in /  1013.2hPa Calm   2mph /  3.2km/h 85% 0in /  0.0mm 0 W/m2
21:05 61.7 °F /  16.5 °C 57.2 °F /  14 °C 29.9in /  1013.2hPa NNE 0.9mph /  1.4km/h 1mph /  1.6km/h 85% 0in /  0.0mm 0 W/m2
21:10 61.5 °F /  16.4 °C 57.4 °F /  14.1 °C 29.9in /  1013.2hPa NNE 2mph /  3.2km/h 3mph /  4.8km/h 86% 0in /  0.0mm 0 W/m2
21:15 61.5 °F /  16.4 °C 57.4 °F /  14.1 °C 29.9in /  1012.9hPa NNW 2.9mph /  4.7km/h 4mph /  6.4km/h 86% 0in /  0.0mm 0 W/m2
21:20 61.5 °F /  16.4 °C 57.4 °F /  14.1 °C 29.9in /  1013.2hPa NNW 2mph /  3.2km/h 6mph /  9.7km/h 86% 0in /  0.0mm 0 W/m2
21:25 61.3 °F /  16.3 °C 57.2 °F /  14 °C 29.9in /  1012.9hPa NNE 2.9mph /  4.7km/h 3mph /  4.8km/h 86% 0in /  0.0mm 0 W/m2
21:30 61.3 °F /  16.3 °C 57.2 °F /  14 °C 29.9in /  1012.9hPa NNW 0.9mph /  1.4km/h 5mph /  8km/h 86% 0in /  0.0mm 0 W/m2
21:35 61.3 °F /  16.3 °C 57.4 °F /  14.1 °C 29.9in /  1012.9hPa Calm   1mph /  1.6km/h 87% 0in /  0.0mm 0 W/m2
21:40 61.2 °F /  16.2 °C 57.2 °F /  14 °C 29.9in /  1012.9hPa Calm   3mph /  4.8km/h 87% 0in /  0.0mm 0 W/m2
21:45 61.2 °F /  16.2 °C 57.2 °F /  14 °C 29.9in /  1012.9hPa ENE 0.9mph /  1.4km/h 5mph /  8km/h 87% 0in /  0.0mm 0 W/m2
21:50 61.2 °F /  16.2 °C 57.2 °F /  14 °C 29.9in /  1012.9hPa NNW 2mph /  3.2km/h 4mph /  6.4km/h 87% 0in /  0.0mm 0 W/m2
21:55 61 °F /  16.1 °C 57.4 °F /  14.1 °C 29.9in /  1013.2hPa NW 2.9mph /  4.7km/h 4mph /  6.4km/h 88% 0in /  0.0mm 0 W/m2
22:00 61 °F /  16.1 °C 57.4 °F /  14.1 °C 29.9in /  1012.9hPa ENE 2mph /  3.2km/h 4mph /  6.4km/h 88% 0in /  0.0mm 0 W/m2
22:05 60.8 °F /  16 °C 57.2 °F /  14 °C 29.9in /  1012.9hPa ENE 0.9mph /  1.4km/h 2mph /  3.2km/h 88% 0in /  0.0mm 0 W/m2
22:10 60.6 °F /  15.9 °C 57 °F /  13.9 °C 29.9in /  1012.9hPa WNW 0.9mph /  1.4km/h 4mph /  6.4km/h 88% 0in /  0.0mm 0 W/m2
22:15 60.6 °F /  15.9 °C 57.4 °F /  14.1 °C 29.9in /  1012.9hPa Calm   2mph /  3.2km/h 89% 0in /  0.0mm 0 W/m2
22:20 60.4 °F /  15.8 °C 57.2 °F /  14 °C 29.9in /  1012.9hPa ENE 0.9mph /  1.4km/h 3mph /  4.8km/h 89% 0in /  0.0mm 0 W/m2
22:25 60.4 °F /  15.8 °C 57.2 °F /  14 °C 29.9in /  1012.9hPa ENE 0.9mph /  1.4km/h 2mph /  3.2km/h 89% 0in /  0.0mm 0 W/m2
22:30 60.4 °F /  15.8 °C 57.2 °F /  14 °C 29.9in /  1013.2hPa Calm   3mph /  4.8km/h 89% 0in /  0.0mm 0 W/m2
22:35 60.4 °F /  15.8 °C 57.2 °F /  14 °C 29.9in /  1013.2hPa Calm   2mph /  3.2km/h 89% 0in /  0.0mm 0 W/m2
22:40 60.3 °F /  15.7 °C 57 °F /  13.9 °C 29.9in /  1013.2hPa NE 0.9mph /  1.4km/h 3mph /  4.8km/h 89% 0in /  0.0mm 0 W/m2
22:45 60.3 °F /  15.7 °C 57.4 °F /  14.1 °C 29.9in /  1013.2hPa Calm   2mph /  3.2km/h 90% 0in /  0.0mm 0 W/m2
22:50 60.1 °F /  15.6 °C 57.2 °F /  14 °C 29.9in /  1013.2hPa ENE 2mph /  3.2km/h 2mph /  3.2km/h 90% 0in /  0.0mm 0 W/m2
22:55 59.9 °F /  15.5 °C 57 °F /  13.9 °C 29.9in /  1013.2hPa Calm   1mph /  1.6km/h 90% 0in /  0.0mm 0 W/m2
23:00 59.7 °F /  15.4 °C 57 °F /  13.9 °C 29.9in /  1013.2hPa ENE 2mph /  3.2km/h 2mph /  3.2km/h 91% 0in /  0.0mm 0 W/m2
23:05 59.5 °F /  15.3 °C 56.8 °F /  13.8 °C 29.9in /  1013.2hPa Calm   3mph /  4.8km/h 91% 0in /  0.0mm 0 W/m2
23:10 59.5 °F /  15.3 °C 57.2 °F /  14 °C 29.9in /  1013.2hPa NE 2mph /  3.2km/h 3mph /  4.8km/h 92% 0in /  0.0mm 0 W/m2
23:15 59.4 °F /  15.2 °C 56.7 °F /  13.7 °C 29.9in /  1013.2hPa NE 4mph /  6.4km/h 4mph /  6.4km/h 91% 0in /  0.0mm 0 W/m2
23:20 59.4 °F /  15.2 °C 57 °F /  13.9 °C 29.9in /  1013.2hPa Calm   2mph /  3.2km/h 92% 0in /  0.0mm 0 W/m2
23:25 59.2 °F /  15.1 °C 56.8 °F /  13.8 °C 29.9in /  1013.2hPa Calm   4mph /  6.4km/h 92% 0in /  0.0mm 0 W/m2
23:30 59.2 °F /  15.1 °C 56.8 °F /  13.8 °C 29.9in /  1013.2hPa ESE 0.9mph /  1.4km/h 2mph /  3.2km/h 92% 0in /  0.0mm 0 W/m2
23:35 59 °F /  15 °C 56.7 °F /  13.7 °C 29.9in /  1013.2hPa Calm   1mph /  1.6km/h 92% 0in /  0.0mm 0 W/m2
23:40 58.8 °F /  14.9 °C 56.5 °F /  13.6 °C 29.9in /  1013.2hPa NE 0.9mph /  1.4km/h 3mph /  4.8km/h 92% 0in /  0.0mm 0 W/m2
23:45 58.8 °F /  14.9 °C 56.5 °F /  13.6 °C 29.9in /  1012.9hPa Calm   2mph /  3.2km/h 92% 0in /  0.0mm 0 W/m2
23:50 58.8 °F /  14.9 °C 56.5 °F /  13.6 °C 29.9in /  1012.9hPa Calm   1mph /  1.6km/h 92% 0in /  0.0mm 0 W/m2
23:55 58.6 °F /  14.8 °C 56.7 °F /  13.7 °C 29.9in /  1012.9hPa Calm     93% 0in /  0.0mm 0 W/m2
Juneau County Weather
Compliments of Weather Underground - 4 mb